Time;durP1;ratioP1;P1;durP2;ratioP2;P2;SDS_P1;SDS_P2;PMS_P1;PMS_P2;Temp;Humidity;BMP_temperature;BMP_pressure;BME280_temperature;BME280_humidity;BME280_pressure;Samples;Min_cycle;Max_cycle;Signal;HPM_P1;HPM_P2
2021/07/09 00:01:07;;;;;;;19.67;12.68;;;;;;;17.67;89.80;102151.53;5070066;28;20048;-57
2021/07/09 00:03:34;;;;;;;17.38;12.27;;;;;;;17.65;88.95;102153.44;5072057;28;20056;-57
2021/07/09 00:06:02;;;;;;;17.70;12.07;;;;;;;17.62;88.86;102151.00;5071849;28;20055;-57
2021/07/09 00:08:29;;;;;;;17.38;11.05;;;;;;;17.61;88.18;102149.31;5054274;28;20481;-57
2021/07/09 00:10:56;;;;;;;17.27;11.50;;;;;;;17.56;88.92;102152.31;5053961;28;20052;-57
2021/07/09 00:13:22;;;;;;;16.58;11.63;;;;;;;17.56;89.00;102143.47;5071876;28;20102;-57
2021/07/09 00:15:49;;;;;;;15.30;11.48;;;;;;;17.56;88.93;102152.31;5051890;28;20513;-57
2021/07/09 00:18:16;;;;;;;17.00;11.00;;;;;;;17.55;89.27;102150.63;5072028;28;20453;-53
2021/07/09 00:20:43;;;;;;;17.00;11.43;;;;;;;17.52;89.05;102144.66;5054201;28;20056;-52
2021/07/09 00:23:10;;;;;;;17.08;11.30;;;;;;;17.50;88.26;102144.78;5071398;28;20044;-51
2021/07/09 00:25:37;;;;;;;16.40;10.55;;;;;;;17.47;88.65;102146.84;5070657;28;20036;-56
2021/07/09 00:28:04;;;;;;;15.05;10.35;;;;;;;17.41;88.30;102145.50;5071711;28;20425;-57
2021/07/09 00:30:31;;;;;;;16.77;9.80;;;;;;;17.40;87.92;102143.78;5070283;28;20049;-56
2021/07/09 00:32:58;;;;;;;14.48;10.80;;;;;;;17.47;87.71;102141.53;5071001;28;20088;-56
2021/07/09 00:35:25;;;;;;;13.90;10.00;;;;;;;17.46;87.59;102138.00;5054593;28;20111;-56
2021/07/09 00:37:51;;;;;;;16.50;10.45;;;;;;;17.51;87.57;102135.00;5036597;28;20051;-56
2021/07/09 00:40:18;;;;;;;16.23;10.55;;;;;;;17.44;87.21;102136.41;5071533;28;20508;-56
2021/07/09 00:42:45;;;;;;;15.77;10.43;;;;;;;17.42;87.01;102128.56;5071720;28;20128;-58
2021/07/09 00:45:13;;;;;;;15.15;10.07;;;;;;;17.39;86.64;102134.94;5069670;28;20044;-56
2021/07/09 00:47:44;;;;;;;15.63;10.55;;;;;;;17.39;86.13;102136.75;5071291;28;20130;-57
2021/07/09 00:50:11;;;;;;;17.23;10.45;;;;;;;17.38;86.00;102132.41;5036698;28;20061;-57
2021/07/09 00:52:39;;;;;;;15.20;10.30;;;;;;;17.40;86.55;102138.47;5037021;28;20072;-57
2021/07/09 00:55:08;;;;;;;18.70;10.38;;;;;;;17.25;86.06;102140.44;5070870;28;20043;-57
2021/07/09 00:57:44;;;;;;;18.10;11.05;;;;;;;17.30;86.59;102135.66;5053529;28;20063;-57
2021/07/09 01:00:13;;;;;;;16.30;9.82;;;;;;;17.27;85.81;102133.19;5051901;28;20570;-56
2021/07/09 01:02:40;;;;;;;16.25;10.15;;;;;;;17.27;86.25;102133.19;5071226;28;20097;-53
2021/07/09 01:05:09;;;;;;;15.77;10.80;;;;;;;17.20;85.89;102129.28;5070140;28;20047;-52
2021/07/09 01:07:37;;;;;;;14.68;9.85;;;;;;;17.11;85.42;102137.94;5070366;28;20519;-53
2021/07/09 01:10:08;;;;;;;16.60;10.50;;;;;;;17.01;85.77;102135.94;5052154;28;20127;-54
2021/07/09 01:12:36;;;;;;;17.30;10.80;;;;;;;17.04;85.73;102138.38;5071220;28;20485;-54
2021/07/09 01:15:06;;;;;;;16.98;10.63;;;;;;;16.85;86.94;102133.50;5055624;28;20140;-55
2021/07/09 01:17:33;;;;;;;15.77;9.85;;;;;;;16.87;86.37;102138.72;5073578;28;20075;-55
2021/07/09 01:20:01;;;;;;;16.02;10.10;;;;;;;16.89;86.34;102139.47;5073444;28;20055;-57
2021/07/09 01:22:29;;;;;;;16.02;10.52;;;;;;;16.85;86.56;102137.97;5053544;28;20056;-58
2021/07/09 01:24:56;;;;;;;15.15;10.55;;;;;;;16.81;86.45;102142.66;5070009;28;20127;-55
2021/07/09 01:27:23;;;;;;;18.80;10.55;;;;;;;16.85;86.17;102141.47;5055764;28;20056;-56
2021/07/09 01:29:50;;;;;;;15.57;10.23;;;;;;;16.90;85.87;102146.50;5070964;28;20849;-55
2021/07/09 01:32:17;;;;;;;14.63;10.45;;;;;;;16.90;85.46;102147.31;5070520;28;20041;-55
2021/07/09 01:34:44;;;;;;;16.02;10.15;;;;;;;16.81;86.17;102145.31;5071542;28;20484;-56
2021/07/09 01:37:15;;;;;;;17.55;10.88;;;;;;;16.71;86.28;102147.78;5073266;28;20044;-54
2021/07/09 01:39:43;;;;;;;16.63;11.43;;;;;;;16.68;86.16;102145.31;5055439;28;20473;-54
2021/07/09 01:42:11;;;;;;;17.15;10.35;;;;;;;16.69;86.11;102144.38;5073155;28;20052;-54
2021/07/09 01:44:39;;;;;;;16.27;11.25;;;;;;;16.64;85.97;102149.16;5052151;28;20053;-54
2021/07/09 01:47:06;;;;;;;16.33;10.00;;;;;;;16.55;86.61;102136.50;5069166;28;20071;-55
2021/07/09 01:49:52;;;;;;;17.05;10.63;;;;;;;16.50;86.50;102134.19;5070012;28;20052;-55
2021/07/09 01:52:19;;;;;;;19.52;10.82;;;;;;;16.56;85.70;102139.09;5072742;28;20435;-53
2021/07/09 01:54:46;;;;;;;16.50;10.70;;;;;;;16.42;86.50;102128.56;5053907;28;20044;-54
2021/07/09 01:57:13;;;;;;;15.95;10.18;;;;;;;16.46;86.65;102126.56;5052540;28;20113;-53
2021/07/09 01:59:41;;;;;;;18.75;10.95;;;;;;;16.48;85.96;102136.09;5053729;28;20090;-53
2021/07/09 02:02:09;;;;;;;16.88;10.52;;;;;;;16.56;85.80;102127.59;5052924;28;20094;-55
2021/07/09 02:04:50;;;;;;;18.95;10.30;;;;;;;16.55;85.80;102137.38;5069948;28;20394;-53
2021/07/09 02:07:18;;;;;;;17.83;10.90;;;;;;;16.54;85.70;102133.03;5069600;28;20056;-55
2021/07/09 02:09:47;;;;;;;16.17;10.18;;;;;;;16.55;85.41;102131.22;5070704;28;20135;-53
2021/07/09 02:12:17;;;;;;;16.35;10.07;;;;;;;16.43;85.72;102134.72;5072570;28;20534;-54
2021/07/09 02:14:43;;;;;;;19.00;10.65;;;;;;;16.45;85.71;102140.78;5068829;28;20048;-54
2021/07/09 02:17:13;;;;;;;16.42;10.90;;;;;;;16.44;85.50;102139.09;5068615;28;20049;-57
2021/07/09 02:19:42;;;;;;;17.08;10.25;;;;;;;16.45;85.69;102146.94;5070099;28;20080;-57
2021/07/09 02:22:11;;;;;;;15.38;10.25;;;;;;;16.43;85.98;102140.03;5051709;28;20063;-57
2021/07/09 02:24:39;;;;;;;18.17;10.80;;;;;;;16.44;86.09;102145.22;5053181;28;20045;-55
2021/07/09 02:27:07;;;;;;;18.17;10.60;;;;;;;16.40;86.10;102143.75;5072140;28;20044;-56
2021/07/09 02:29:35;;;;;;;15.85;10.35;;;;;;;16.41;85.76;102141.97;5068431;28;20114;-57
2021/07/09 02:32:04;;;;;;;18.02;11.18;;;;;;;16.29;86.17;102139.22;5068862;28;20044;-55
2021/07/09 02:34:32;;;;;;;15.95;10.20;;;;;;;16.27;86.52;102141.09;5051697;28;20744;-54
2021/07/09 02:36:59;;;;;;;16.10;10.95;;;;;;;16.26;86.48;102138.56;5070612;28;20571;-53
2021/07/09 02:39:26;;;;;;;16.50;11.05;;;;;;;16.21;86.88;102137.06;5072421;28;20419;-54
2021/07/09 02:41:54;;;;;;;15.43;9.85;;;;;;;16.19;87.04;102135.47;5072481;28;20106;-54
2021/07/09 02:44:22;;;;;;;16.52;10.32;;;;;;;16.20;86.76;102138.03;5072174;28;20056;-54
2021/07/09 02:46:49;;;;;;;19.85;11.02;;;;;;;16.09;87.65;102139.69;5073630;28;20052;-54
2021/07/09 02:49:16;;;;;;;19.35;11.27;;;;;;;16.03;87.49;102135.66;5078624;28;20052;-56
2021/07/09 02:51:45;;;;;;;17.30;10.55;;;;;;;16.07;87.45;102131.00;5044592;28;20086;-56
2021/07/09 02:54:12;;;;;;;16.33;10.43;;;;;;;16.01;87.52;102138.41;5076247;28;20106;-56
2021/07/09 02:56:39;;;;;;;16.20;11.27;;;;;;;15.91;88.75;102129.41;5057935;28;20102;-56
2021/07/09 02:59:06;;;;;;;19.30;11.25;;;;;;;15.88;88.81;102130.47;5075457;28;20064;-56
2021/07/09 03:01:33;;;;;;;17.23;10.07;;;;;;;15.93;88.88;102130.13;5057303;28;20049;-56
2021/07/09 03:04:06;;;;;;;20.65;11.35;;;;;;;15.97;88.41;102128.97;5075178;28;20049;-56
2021/07/09 03:06:33;;;;;;;19.48;11.40;;;;;;;15.97;88.31;102134.28;5077112;28;20048;-54
2021/07/09 03:09:01;;;;;;;17.83;11.85;;;;;;;15.97;88.05;102133.44;5076568;28;20045;-53
2021/07/09 03:11:28;;;;;;;21.25;12.30;;;;;;;15.96;87.98;102134.38;5058077;28;20053;-54
2021/07/09 03:13:55;;;;;;;18.23;11.30;;;;;;;15.94;88.24;102133.63;5078571;28;20052;-51
2021/07/09 03:16:22;;;;;;;21.00;12.30;;;;;;;15.81;88.88;102130.97;5078746;28;20083;-55
2021/07/09 03:18:49;;;;;;;18.98;11.90;;;;;;;15.74;89.21;102132.31;5076967;28;20373;-53
2021/07/09 03:21:16;;;;;;;18.88;11.85;;;;;;;15.70;89.82;102129.84;5075391;28;20058;-53
2021/07/09 03:23:42;;;;;;;16.95;10.90;;;;;;;15.67;89.99;102123.91;5078330;28;20492;-54
2021/07/09 03:26:09;;;;;;;19.90;12.02;;;;;;;15.63;89.95;102128.56;5078548;28;20044;-55
2021/07/09 03:28:36;;;;;;;18.40;11.65;;;;;;;15.72;89.68;102116.50;5043946;28;20052;-59
2021/07/09 03:31:03;;;;;;;21.67;12.65;;;;;;;15.75;89.07;102116.28;5078379;28;20110;-56
2021/07/09 03:33:30;;;;;;;22.13;12.77;;;;;;;15.79;88.88;102116.91;5059172;28;20087;-55
2021/07/09 03:35:57;;;;;;;19.00;12.20;;;;;;;15.81;88.84;102110.59;5075109;28;20511;-54
2021/07/09 03:38:23;;;;;;;20.10;11.35;;;;;;;15.85;88.38;102121.84;5078069;28;20053;-56
2021/07/09 03:40:50;;;;;;;21.35;11.90;;;;;;;15.84;88.29;102117.50;5057789;28;20052;-57
2021/07/09 03:43:17;;;;;;;17.48;10.55;;;;;;;15.79;88.45;102112.47;5058563;28;20040;-56
2021/07/09 03:45:44;;;;;;;19.38;10.40;;;;;;;15.85;87.98;102109.41;5076697;28;20102;-56
2021/07/09 03:48:11;;;;;;;20.77;12.15;;;;;;;15.78;88.64;102110.75;5056938;28;20614;-56
2021/07/09 03:50:37;;;;;;;19.83;11.50;;;;;;;15.75;89.49;102121.59;5075647;28;20064;-55
2021/07/09 03:53:05;;;;;;;20.63;11.55;;;;;;;15.71;88.84;102128.88;5075039;28;20045;-55
2021/07/09 03:55:32;;;;;;;21.00;12.13;;;;;;;15.81;88.63;102120.34;5074916;28;20520;-53
2021/07/09 03:58:00;;;;;;;19.88;11.95;;;;;;;15.76;88.72;102117.13;5074333;28;20076;-54
2021/07/09 04:00:26;;;;;;;18.90;11.68;;;;;;;15.75;89.25;102110.97;5071456;28;20044;-55
2021/07/09 04:02:53;;;;;;;19.75;12.20;;;;;;;15.70;88.86;102118.38;5074761;28;20071;-55
2021/07/09 04:05:20;;;;;;;21.02;12.55;;;;;;;15.70;89.04;102129.84;5072294;28;20378;-55
2021/07/09 04:07:47;;;;;;;22.38;13.23;;;;;;;15.75;88.72;102113.63;5054070;28;20036;-53
2021/07/09 04:10:13;;;;;;;20.48;12.25;;;;;;;15.68;89.27;102115.00;5074415;28;20049;-54
2021/07/09 04:12:40;;;;;;;23.00;12.98;;;;;;;15.66;89.54;102112.44;5073571;28;20054;-54
2021/07/09 04:15:07;;;;;;;23.75;13.52;;;;;;;15.54;89.88;102119.41;5069617;28;20040;-54
2021/07/09 04:17:34;;;;;;;23.02;12.50;;;;;;;15.51;89.95;102129.38;5073297;28;20052;-56
2021/07/09 04:20:01;;;;;;;20.80;11.02;;;;;;;15.51;89.78;102129.38;5074791;28;20090;-56
2021/07/09 04:22:28;;;;;;;20.60;10.88;;;;;;;15.49;89.67;102128.63;5074687;28;20097;-52
2021/07/09 04:24:55;;;;;;;18.55;11.80;;;;;;;15.44;90.53;102128.06;5074729;28;20512;-54
2021/07/09 04:27:22;;;;;;;20.95;11.73;;;;;;;15.44;90.46;102133.38;5074688;28;20531;-54
2021/07/09 04:29:48;;;;;;;21.17;12.75;;;;;;;15.41;90.99;102128.28;5074825;28;20060;-54
2021/07/09 04:32:15;;;;;;;21.75;12.00;;;;;;;15.43;90.98;102131.66;5074394;28;20058;-54
2021/07/09 04:34:42;;;;;;;19.55;11.95;;;;;;;15.41;90.79;102142.38;5074332;28;20044;-52
2021/07/09 04:37:09;;;;;;;19.27;12.10;;;;;;;15.45;91.11;102143.88;5071309;28;20049;-53
2021/07/09 04:39:37;;;;;;;22.30;11.68;;;;;;;15.52;90.47;102144.31;5037871;28;20389;-54
2021/07/09 04:42:05;;;;;;;21.70;12.50;;;;;;;15.53;90.66;102140.72;5056499;28;20405;-54
2021/07/09 04:44:33;;;;;;;20.08;12.00;;;;;;;15.55;90.87;102141.47;5074275;28;20493;-55
2021/07/09 04:46:59;;;;;;;20.77;12.13;;;;;;;15.56;90.72;102143.19;5056136;28;20049;-54
2021/07/09 04:49:27;;;;;;;19.00;11.70;;;;;;;15.55;91.01;102138.81;5056369;28;20564;-56
2021/07/09 04:51:53;;;;;;;20.63;11.77;;;;;;;15.49;90.79;102139.22;5074320;28;20049;-51
2021/07/09 04:54:20;;;;;;;19.13;10.70;;;;;;;15.50;91.38;102136.47;5073828;28;20067;-54
2021/07/09 04:56:47;;;;;;;24.25;12.57;;;;;;;15.45;91.47;102132.44;5073887;28;20087;-54
2021/07/09 04:59:14;;;;;;;22.25;12.55;;;;;;;15.45;91.93;102141.22;5056145;28;20102;-53
2021/07/09 05:01:41;;;;;;;20.50;12.38;;;;;;;15.45;91.68;102137.75;5056109;28;20147;-51
2021/07/09 05:04:08;;;;;;;22.67;12.70;;;;;;;15.54;91.82;102137.97;5073592;28;20047;-55
2021/07/09 05:06:35;;;;;;;23.50;14.20;;;;;;;15.58;91.97;102137.75;5073530;28;20083;-54
2021/07/09 05:09:04;;;;;;;25.08;13.13;;;;;;;15.52;92.36;102141.69;5073731;28;20386;-56
2021/07/09 05:11:31;;;;;;;25.80;13.90;;;;;;;15.52;92.48;102142.50;5073287;28;20049;-56
2021/07/09 05:13:58;;;;;;;28.42;14.60;;;;;;;15.53;92.07;102138.09;5071498;28;20094;-57
2021/07/09 05:16:25;;;;;;;25.67;13.90;;;;;;;15.54;92.07;102142.41;5051099;28;20885;-56
2021/07/09 05:18:53;;;;;;;24.55;13.95;;;;;;;15.63;91.70;102141.81;5070333;28;20076;-54
2021/07/09 05:21:19;;;;;;;27.02;14.48;;;;;;;15.67;91.95;102135.34;5070577;28;20053;-52
2021/07/09 05:23:46;;;;;;;26.83;14.00;;;;;;;15.76;91.41;102136.56;5072071;28;20048;-53
2021/07/09 05:26:13;;;;;;;27.17;13.15;;;;;;;15.87;90.88;102125.25;5073312;28;20500;-55
2021/07/09 05:28:40;;;;;;;24.52;14.20;;;;;;;15.92;89.68;102141.69;5073232;28;20408;-55
2021/07/09 05:31:07;;;;;;;24.10;13.75;;;;;;;15.99;88.19;102134.16;5073181;28;20058;-56
2021/07/09 05:33:33;;;;;;;25.90;15.23;;;;;;;16.07;87.50;102136.31;5073123;28;20164;-53
2021/07/09 05:36:00;;;;;;;27.13;14.30;;;;;;;16.16;87.25;102141.00;5072875;28;20063;-54
2021/07/09 05:38:27;;;;;;;28.13;14.63;;;;;;;16.24;88.06;102138.66;5073078;28;20496;-55
2021/07/09 05:40:54;;;;;;;27.70;14.93;;;;;;;16.28;87.33;102136.63;5055640;28;20049;-53
2021/07/09 05:43:21;;;;;;;30.52;15.82;;;;;;;16.36;86.83;102134.28;5072973;28;20460;-54
2021/07/09 05:45:47;;;;;;;24.70;14.73;;;;;;;16.42;87.07;102133.88;5072130;28;20051;-55
2021/07/09 05:48:15;;;;;;;23.67;13.50;;;;;;;16.50;86.41;102134.19;5070036;28;20485;-56
2021/07/09 05:50:41;;;;;;;23.77;14.05;;;;;;;16.61;85.66;102140.56;5071718;28;20481;-56
2021/07/09 05:53:08;;;;;;;23.65;13.98;;;;;;;16.67;84.80;102140.97;5072248;28;20409;-54
2021/07/09 05:55:35;;;;;;;25.10;12.77;;;;;;;16.76;84.34;102139.47;5052527;28;20037;-53
2021/07/09 05:58:02;;;;;;;23.35;12.57;;;;;;;16.86;84.16;102143.16;5051443;28;20056;-54
2021/07/09 06:00:29;;;;;;;21.88;13.32;;;;;;;16.89;82.52;102142.13;5054674;28;20048;-54
2021/07/09 06:02:55;;;;;;;23.15;12.23;;;;;;;16.98;82.80;102146.78;5052160;28;20040;-56
2021/07/09 06:05:22;;;;;;;21.95;12.10;;;;;;;17.08;82.13;102139.00;5053072;28;20102;-55
2021/07/09 06:07:49;;;;;;;20.90;11.77;;;;;;;17.15;82.86;102140.28;5054835;28;20060;-54
2021/07/09 06:10:16;;;;;;;21.00;12.15;;;;;;;17.26;82.91;102147.47;5069911;28;20059;-52
2021/07/09 06:12:43;;;;;;;23.60;12.13;;;;;;;17.35;82.73;102141.44;5051862;28;20531;-54
2021/07/09 06:15:10;;;;;;;18.88;11.90;;;;;;;17.45;81.67;102136.31;5067284;28;20040;-55
2021/07/09 06:17:37;;;;;;;23.50;12.32;;;;;;;17.53;80.47;102141.06;5069010;28;20535;-56
2021/07/09 06:20:05;;;;;;;20.50;10.18;;;;;;;17.66;80.08;102141.00;5069452;28;20049;-55
2021/07/09 06:22:32;;;;;;;15.95;9.13;;;;;;;17.78;78.81;102142.75;5050396;28;20052;-56
2021/07/09 06:24:59;;;;;;;15.23;10.07;;;;;;;17.92;79.16;102147.03;5053715;28;20080;-54
2021/07/09 06:27:26;;;;;;;13.55;7.53;;;;;;;18.00;75.21;102141.97;5054193;28;20040;-55
2021/07/09 06:29:53;;;;;;;11.77;7.03;;;;;;;18.07;73.74;102148.53;5069133;28;20063;-54
2021/07/09 06:32:20;;;;;;;12.65;5.90;;;;;;;18.16;72.32;102148.78;5069261;28;20055;-54
2021/07/09 06:34:47;;;;;;;9.48;5.80;;;;;;;18.27;72.31;102150.63;5070550;28;20048;-55
2021/07/09 06:37:13;;;;;;;10.20;6.18;;;;;;;18.38;73.39;102153.31;5068605;28;20049;-56
2021/07/09 06:39:40;;;;;;;11.85;6.13;;;;;;;18.45;71.51;102148.31;5067870;28;20048;-56
2021/07/09 06:42:07;;;;;;;11.02;5.88;;;;;;;18.55;71.38;102158.16;5071272;28;20066;-56
2021/07/09 06:44:34;;;;;;;11.65;6.30;;;;;;;18.61;70.50;102151.50;5069207;28;20056;-54
2021/07/09 06:47:00;;;;;;;10.68;6.30;;;;;;;18.72;70.64;102156.00;5068995;28;20373;-54
2021/07/09 06:49:27;;;;;;;13.90;5.93;;;;;;;18.85;71.63;102158.50;5053035;28;20055;-55
2021/07/09 06:51:54;;;;;;;12.20;6.70;;;;;;;18.97;72.85;102154.91;5070903;28;20082;-55
2021/07/09 06:54:21;;;;;;;13.57;7.57;;;;;;;19.07;71.38;102155.88;5072161;28;20083;-55
2021/07/09 06:56:47;;;;;;;13.45;6.80;;;;;;;19.24;71.27;102159.81;5072213;28;20477;-55
2021/07/09 06:59:15;;;;;;;11.55;6.47;;;;;;;19.30;72.39;102157.63;5071966;28;20051;-54
2021/07/09 07:01:42;;;;;;;10.82;5.47;;;;;;;19.42;69.07;102153.94;5071872;28;20053;-56
2021/07/09 07:04:10;;;;;;;8.18;4.43;;;;;;;19.41;67.63;102154.91;5071682;28;20052;-55
2021/07/09 07:06:36;;;;;;;8.27;4.15;;;;;;;19.56;68.53;102158.97;5072028;28;20400;-54
2021/07/09 07:09:03;;;;;;;6.28;3.10;;;;;;;19.68;67.64;102161.63;5068287;28;20048;-56
2021/07/09 07:11:30;;;;;;;5.55;3.25;;;;;;;19.75;66.32;102162.78;5069398;28;20094;-56
2021/07/09 07:13:58;;;;;;;5.43;3.22;;;;;;;19.87;68.05;102160.94;5071960;28;20048;-56
2021/07/09 07:16:25;;;;;;;5.15;2.80;;;;;;;19.90;61.14;102163.34;5068687;28;20040;-57
2021/07/09 07:18:51;;;;;;;5.15;2.63;;;;;;;20.08;62.65;102153.81;5068108;28;20052;-56
2021/07/09 07:21:18;;;;;;;6.30;3.00;;;;;;;20.28;64.31;102156.56;5070815;28;20048;-56
2021/07/09 07:23:45;;;;;;;5.43;2.78;;;;;;;20.36;60.88;102161.28;5068497;28;20064;-57
2021/07/09 07:26:13;;;;;;;4.75;2.58;;;;;;;20.53;61.34;102163.31;5068114;28;20044;-57
2021/07/09 07:28:40;;;;;;;6.78;2.90;;;;;;;20.61;59.80;102165.31;5050508;28;20054;-57
2021/07/09 07:31:09;;;;;;;5.47;2.40;;;;;;;20.78;60.71;102161.19;5065688;28;20529;-57
2021/07/09 07:33:37;;;;;;;5.35;2.60;;;;;;;20.97;59.02;102164.91;5070223;28;20493;-58
2021/07/09 07:36:14;;;;;;;5.13;2.60;;;;;;;21.15;58.76;102159.75;5074871;28;20119;-57
2021/07/09 07:38:42;;;;;;;5.80;3.05;;;;;;;21.23;59.20;102154.56;5070419;28;20056;-58
2021/07/09 07:41:09;;;;;;;5.93;3.05;;;;;;;21.39;59.90;102159.34;5055671;28;20048;-58
2021/07/09 07:43:36;;;;;;;5.55;2.90;;;;;;;21.42;57.35;102149.22;5071359;28;20040;-58
2021/07/09 07:46:03;;;;;;;7.43;3.47;;;;;;;21.56;56.47;102142.63;5069628;28;20048;-58
2021/07/09 07:48:30;;;;;;;6.60;2.97;;;;;;;21.68;57.21;102143.34;5075167;28;20057;-58
2021/07/09 07:50:57;;;;;;;7.22;3.13;;;;;;;21.81;58.58;102142.19;5074575;28;20436;-58
2021/07/09 07:53:24;;;;;;;6.72;3.47;;;;;;;22.01;57.56;102143.03;5071409;28;20459;-59
2021/07/09 07:55:50;;;;;;;5.68;3.20;;;;;;;22.12;55.98;102154.41;5071156;28;20048;-58
2021/07/09 07:58:17;;;;;;;7.28;3.03;;;;;;;22.10;55.52;102152.84;5073601;28;20052;-58
2021/07/09 08:00:44;;;;;;;7.32;3.10;;;;;;;22.26;53.50;102150.44;5071461;28;20409;-58
2021/07/09 08:03:11;;;;;;;6.30;3.22;;;;;;;22.36;55.12;102147.75;5054182;28;20508;-58
2021/07/09 08:05:38;;;;;;;6.20;3.53;;;;;;;22.55;52.52;102148.66;5075026;28;20094;-58
2021/07/09 08:08:05;;;;;;;6.22;3.30;;;;;;;22.71;53.75;102146.19;5055952;28;20420;-59
2021/07/09 08:10:32;;;;;;;8.43;3.40;;;;;;;22.68;53.09;102151.84;5071612;28;20067;-59
2021/07/09 08:12:59;;;;;;;7.13;3.15;;;;;;;22.91;57.61;102152.28;5071728;28;20581;-59
2021/07/09 08:15:26;;;;;;;6.75;3.17;;;;;;;23.04;56.54;102151.09;5071073;28;20501;-59
2021/07/09 08:17:53;;;;;;;6.15;3.15;;;;;;;23.27;52.99;102157.75;5056278;28;20048;-59
2021/07/09 08:20:20;;;;;;;6.32;3.28;;;;;;;23.45;51.36;102149.72;5071974;28;20040;-59
2021/07/09 08:22:47;;;;;;;5.88;2.83;;;;;;;23.57;50.66;102154.84;5072643;28;20051;-57
2021/07/09 08:25:16;;;;;;;4.75;2.70;;;;;;;23.81;50.01;102154.19;5072383;28;20048;-59
2021/07/09 08:27:43;;;;;;;4.88;2.72;;;;;;;24.01;49.87;102154.03;5070870;28;20105;-57
2021/07/09 08:30:10;;;;;;;5.93;2.50;;;;;;;24.06;49.90;102155.25;5069107;28;20052;-57
2021/07/09 08:32:37;;;;;;;5.03;2.78;;;;;;;24.01;48.69;102143.28;5070251;28;20056;-57
2021/07/09 08:35:05;;;;;;;5.70;2.35;;;;;;;24.16;47.84;102144.41;5070205;28;20056;-56
2021/07/09 08:37:49;;;;;;;6.03;2.72;;;;;;;24.28;48.91;102145.81;5069821;28;20051;-57
2021/07/09 08:40:17;;;;;;;5.93;2.60;;;;;;;24.40;49.38;102140.16;5052786;28;20044;-56
2021/07/09 08:42:45;;;;;;;5.47;2.50;;;;;;;24.61;48.33;102139.75;5039102;28;20058;-57
2021/07/09 08:45:12;;;;;;;5.93;2.90;;;;;;;24.53;45.87;102137.03;5073090;28;20048;-57
2021/07/09 08:47:39;;;;;;;6.68;3.25;;;;;;;24.69;47.42;102134.47;5073087;28;20044;-57
2021/07/09 08:50:07;;;;;;;6.70;3.17;;;;;;;24.73;46.21;102134.94;5036149;28;20052;-57
2021/07/09 08:52:38;;;;;;;7.15;3.60;;;;;;;24.88;47.41;102136.03;5072379;28;20044;-57
2021/07/09 08:55:06;;;;;;;6.93;3.60;;;;;;;24.92;46.69;102139.22;5036531;28;20057;-56
2021/07/09 08:57:33;;;;;;;7.10;3.58;;;;;;;24.98;45.04;102130.50;5070645;28;20040;-57
2021/07/09 08:59:59;;;;;;;8.23;4.13;;;;;;;25.13;45.70;102128.84;5074195;28;20547;-58
2021/07/09 09:02:27;;;;;;;7.72;4.32;;;;;;;24.91;44.49;102140.22;5071137;28;20048;-58
2021/07/09 09:04:55;;;;;;;8.43;4.10;;;;;;;25.03;47.40;102138.91;5069808;28;20060;-58
2021/07/09 09:07:27;;;;;;;8.02;4.30;;;;;;;25.17;45.97;102131.19;5069959;28;20935;-57
2021/07/09 09:09:54;;;;;;;7.22;4.43;;;;;;;25.15;44.92;102128.69;5069338;28;20493;-57
2021/07/09 09:12:45;;;;;;;8.90;4.38;;;;;;;25.20;45.70;102130.88;5070096;28;20134;-57
2021/07/09 09:15:12;;;;;;;6.43;3.83;;;;;;;25.50;47.98;102131.25;5067481;28;20393;-58
2021/07/09 09:17:39;;;;;;;8.73;4.70;;;;;;;25.71;46.75;102126.22;5052210;28;20105;-57
2021/07/09 09:20:17;;;;;;;9.55;5.20;;;;;;;25.82;45.85;102119.63;5071522;28;20048;-57
2021/07/09 09:22:49;;;;;;;8.65;5.38;;;;;;;25.61;45.70;102122.88;5073483;28;20387;-57
2021/07/09 09:25:18;;;;;;;8.65;5.30;;;;;;;25.72;45.24;102116.28;5073341;28;20064;-57
2021/07/09 09:28:05;;;;;;;8.27;4.60;;;;;;;25.85;45.17;102118.44;5073321;28;20041;-57
2021/07/09 09:30:33;;;;;;;8.00;4.55;;;;;;;25.91;45.93;102121.31;5072123;28;20044;-57
2021/07/09 09:33:02;;;;;;;9.85;5.70;;;;;;;25.93;46.12;102118.44;5071441;28;20052;-57
2021/07/09 09:35:31;;;;;;;9.20;5.10;;;;;;;26.13;46.08;102113.53;5068569;28;20044;-58
2021/07/09 09:38:01;;;;;;;8.02;4.65;;;;;;;26.03;46.01;102108.34;5051618;28;20059;-57
2021/07/09 09:40:28;;;;;;;9.55;5.35;;;;;;;26.20;46.35;102111.84;5069052;28;20063;-57
2021/07/09 09:42:56;;;;;;;9.68;5.80;;;;;;;26.27;45.08;102110.16;5038314;28;20695;-57
2021/07/09 09:45:25;;;;;;;11.23;6.40;;;;;;;26.22;45.64;102108.97;5072904;28;20447;-57
2021/07/09 09:47:53;;;;;;;8.60;5.32;;;;;;;26.37;45.92;102109.94;5071877;28;20048;-57
2021/07/09 09:50:21;;;;;;;10.27;6.07;;;;;;;26.44;44.10;102110.09;5055669;28;20083;-61
2021/07/09 09:52:52;;;;;;;10.05;5.90;;;;;;;26.36;45.76;102105.56;5055267;28;20048;-61
2021/07/09 09:55:32;;;;;;;10.32;6.65;;;;;;;26.27;46.38;102112.84;5073201;28;20052;-61
2021/07/09 09:58:14;;;;;;;9.93;6.03;;;;;;;26.18;46.95;102108.50;5052947;28;20046;-60
2021/07/09 10:00:43;;;;;;;9.75;6.40;;;;;;;25.96;46.92;102113.56;5052786;28;20494;-61
2021/07/09 10:03:17;;;;;;;12.63;7.38;;;;;;;25.91;45.25;102115.91;5071724;28;20048;-60
2021/07/09 10:05:46;;;;;;;9.52;6.25;;;;;;;25.86;48.07;102117.44;5072906;28;20049;-61
2021/07/09 10:08:15;;;;;;;13.20;6.38;;;;;;;25.87;46.83;102117.28;5072409;28;20058;-60
2021/07/09 10:10:44;;;;;;;11.25;7.07;;;;;;;25.80;47.36;102108.19;5070296;28;20048;-61
2021/07/09 10:13:13;;;;;;;10.80;6.25;;;;;;;25.56;46.93;102109.06;5070359;28;20060;-60
2021/07/09 10:15:42;;;;;;;9.43;5.93;;;;;;;25.43;45.73;102110.41;5072990;28;20181;-60
2021/07/09 10:18:11;;;;;;;11.10;6.72;;;;;;;25.58;47.21;102105.19;5072679;28;20040;-60
2021/07/09 10:20:40;;;;;;;11.15;6.85;;;;;;;25.77;47.84;102098.59;5072911;28;20504;-60
2021/07/09 10:23:07;;;;;;;11.90;6.72;;;;;;;25.85;47.30;102102.28;5055185;28;20469;-60
2021/07/09 10:25:35;;;;;;;11.70;6.80;;;;;;;25.90;47.09;102098.06;5054103;28;20052;-60
2021/07/09 10:28:08;;;;;;;10.95;6.68;;;;;;;26.22;47.35;102090.94;5052239;28;20064;-60
2021/07/09 10:30:41;;;;;;;9.23;5.57;;;;;;;26.63;46.84;102092.63;5069811;28;20532;-60
2021/07/09 10:33:34;;;;;;;9.23;6.15;;;;;;;26.62;44.88;102091.78;5054861;28;20083;-60
2021/07/09 10:36:06;;;;;;;11.40;6.93;;;;;;;26.51;44.91;102091.34;5071035;28;20063;-60
2021/07/09 10:38:38;;;;;;;11.68;5.95;;;;;;;26.36;44.81;102083.97;5069838;28;20497;-61
2021/07/09 10:41:19;;;;;;;8.63;5.15;;;;;;;26.55;44.92;102089.97;5071337;28;20111;-61
2021/07/09 10:44:14;;;;;;;8.98;5.93;;;;;;;26.44;45.37;102099.28;5072722;28;20051;-60
2021/07/09 10:46:44;;;;;;;9.00;5.70;;;;;;;26.45;45.70;102090.16;5072390;28;20106;-61
2021/07/09 10:49:11;;;;;;;8.43;4.90;;;;;;;26.75;45.76;102087.69;5071225;28;20545;-61
2021/07/09 10:51:50;;;;;;;7.68;4.97;;;;;;;26.59;44.04;102086.75;5054503;28;20052;-60
2021/07/09 10:54:28;;;;;;;6.57;4.43;;;;;;;26.81;43.67;102084.28;5053878;28;20041;-62
2021/07/09 10:57:17;;;;;;;9.10;4.72;;;;;;;26.86;43.45;102089.16;5068680;28;20048;-60
2021/07/09 11:00:21;;;;;;;9.93;5.22;;;;;;;26.48;44.17;102095.22;5067927;28;20044;-60
2021/07/09 11:03:02;;;;;;;7.88;4.57;;;;;;;27.00;44.58;102085.69;5051971;28;20051;-60
2021/07/09 11:05:43;;;;;;;8.50;5.32;;;;;;;27.26;44.12;102089.91;5070525;28;20498;-60
2021/07/09 11:08:50;;;;;;;9.65;6.25;;;;;;;27.73;44.11;102078.03;5069436;28;20467;-60
2021/07/09 11:11:28;;;;;;;9.63;5.68;;;;;;;28.01;41.67;102080.13;5060464;28;20064;-61
2021/07/09 11:14:11;;;;;;;8.00;3.90;;;;;;;28.03;41.58;102080.75;5071776;28;20045;-61
2021/07/09 11:16:45;;;;;;;6.45;3.92;;;;;;;28.01;41.81;102080.13;5057518;28;20136;-61
2021/07/09 11:19:19;;;;;;;10.80;6.40;;;;;;;28.06;41.14;102083.09;5054524;28;20083;-60
2021/07/09 11:21:50;;;;;;;8.73;4.82;;;;;;;27.63;42.12;102086.38;5071287;28;20386;-61